North Woodstock, New Hampshire
Current Conditions -  °F | °C
As of 12:15 PM on Friday 28 Nov 2014 (Local Time) from K1P1 Reporting Station
Haze Haze  
Wind Chill: 22°   Ceiling: 3700
Heat Index: 31°   Visibility: 5mi
Dew Point: 21°   Wind: 12mph
Humidity: 66%   Direction: 270°W
Pressure: 30.04"   Gusts: 23mph
Location:  44.03°N, 71.69°W
Report Text: K1P1 281715Z AUTO 27010G20KT 5SM HZ SCT030 BKN037 00/M06 A3004 RMK AO2 T10051061
Loading
Personal Weather Stations






























Interactive Weather Map New forecast layout! Learn more

10-Day Weather Forecast

Advertisements
Track Severe Weather on mobile